Wendell, NC (27591)

2:15 AM EST on December 20, 2014 (GMT -0500)
Covington Cross | Change Station
CLOSE
Current Station
Personal Weather Station
Location: Knightdale, NC
Elevation: 243 ft
Nearby Weather Stations

Elev 243 ft 35.77 °N, 78.44 °W | Updated 2 minutes ago

Partly Cloudy
Partly Cloudy
33.1 °F
Feels Like 33 °F
N
0.0
Wind Variable Wind from WSW

Today
High -- | Low -- °F
--% Chance of Precip.
Yesterday
High -- | Low -- °F
Precip. -- in
7:19 AM 5:03 PM
Waning Crescent, 4% visible
Pressure 30.25 in
Visibility 10.0 miles
Clouds Clear
Windchill 33 °F
Dew Point 32 °F
Humidity 97%
Rainfall 0.10 in
Snow Depth Not available.
UV 0 out of 12
Pollen 1.00 out of 12
Air Quality Not available.
Flu Activity Not available.
METAR KLHZ 200655Z AUTO 04004KT 10SM CLR 01/M01 A3025 RMK AO2

More Conditions Fewer Conditions

Pressure 30.25 in
Visibility 10.0 miles
Clouds Clear
Windchill 33 °F
Dew Point 32 °F
Humidity 97%
Rainfall 0.10 in
Snow Depth Not available.
UV 0 out of 12
Pollen 1.00 out of 12
Air Quality Not available.
Flu Activity Not available.
METAR KLHZ 200655Z AUTO 04004KT 10SM CLR 01/M01 A3025 RMK AO2

More Conditions Fewer Conditions

10-Day Weather Forecast

Almanac

Astronomy

Dec. 20, 2014 Rise Set
Actual Time
Civil Twilight
Nautical Twilight
Astronomical Twilight
Moon
Length of Visible Light
Length of Day
Tomorrow will be .
, % of the Moon is Illuminated

Today's Extremes

State Highs State Lows

Community

WunderPhotos

Upload Photos

1,779,146 photos uploaded!

WunderBlogs® & News

Nearby

Air Quality

  Air Quality AQ Index Pollutant
Not available.

Snow Depth

Station Depth Elevation

Earthquake Activity

City Distance Mag. Time & Date
Minimum magnitude displayed is 2.5.

Coastal Water Temperatures

Place Temperature

Nearby Weather Stations